sensor_id;sensor_type;location;lat;lon;timestamp;P1;durP1;ratioP1;P2;durP2;ratioP2
10383;SDS011;5238;43.508;4.980;2022-12-26T00:02:09;8.32;;;4.90;;
10383;SDS011;5238;43.508;4.980;2022-12-26T00:04:37;11.73;;;5.18;;
10383;SDS011;5238;43.508;4.980;2022-12-26T00:07:19;9.88;;;4.40;;
10383;SDS011;5238;43.508;4.980;2022-12-26T00:10:05;9.63;;;4.63;;
10383;SDS011;5238;43.508;4.980;2022-12-26T00:12:39;6.03;;;4.55;;
10383;SDS011;5238;43.508;4.980;2022-12-26T00:15:13;8.52;;;5.10;;
10383;SDS011;5238;43.508;4.980;2022-12-26T00:21:46;7.32;;;4.38;;
10383;SDS011;5238;43.508;4.980;2022-12-26T00:24:39;6.97;;;5.10;;
10383;SDS011;5238;43.508;4.980;2022-12-26T00:27:07;7.53;;;4.13;;
10383;SDS011;5238;43.508;4.980;2022-12-26T00:29:49;7.57;;;4.35;;
10383;SDS011;5238;43.508;4.980;2022-12-26T00:32:17;9.07;;;5.05;;
10383;SDS011;5238;43.508;4.980;2022-12-26T00:35:03;7.60;;;4.82;;
10383;SDS011;5238;43.508;4.980;2022-12-26T00:40:27;8.98;;;5.38;;
10383;SDS011;5238;43.508;4.980;2022-12-26T00:42:59;8.57;;;5.25;;
10383;SDS011;5238;43.508;4.980;2022-12-26T00:48:36;6.35;;;4.93;;
10383;SDS011;5238;43.508;4.980;2022-12-26T00:51:17;5.30;;;3.75;;
10383;SDS011;5238;43.508;4.980;2022-12-26T00:53:52;7.78;;;4.47;;
10383;SDS011;5238;43.508;4.980;2022-12-26T00:56:44;7.80;;;4.80;;
10383;SDS011;5238;43.508;4.980;2022-12-26T00:59:12;7.03;;;4.45;;
10383;SDS011;5238;43.508;4.980;2022-12-26T01:01:54;7.57;;;4.20;;
10383;SDS011;5238;43.508;4.980;2022-12-26T01:04:24;4.82;;;4.10;;
10383;SDS011;5238;43.508;4.980;2022-12-26T01:10:02;6.05;;;4.30;;
10383;SDS011;5238;43.508;4.980;2022-12-26T01:12:41;5.75;;;3.92;;
10383;SDS011;5238;43.508;4.980;2022-12-26T01:15:20;5.88;;;4.28;;
10383;SDS011;5238;43.508;4.980;2022-12-26T01:18:36;7.32;;;4.43;;
10383;SDS011;5238;43.508;4.980;2022-12-26T01:21:06;5.88;;;4.13;;
10383;SDS011;5238;43.508;4.980;2022-12-26T01:24:10;8.18;;;4.55;;
10383;SDS011;5238;43.508;4.980;2022-12-26T01:29:44;6.63;;;3.97;;
10383;SDS011;5238;43.508;4.980;2022-12-26T01:32:12;6.35;;;3.72;;
10383;SDS011;5238;43.508;4.980;2022-12-26T01:35:04;7.65;;;4.25;;
10383;SDS011;5238;43.508;4.980;2022-12-26T01:37:33;7.53;;;4.22;;
10383;SDS011;5238;43.508;4.980;2022-12-26T01:40:18;7.50;;;4.47;;
10383;SDS011;5238;43.508;4.980;2022-12-26T01:42:48;7.47;;;4.25;;
10383;SDS011;5238;43.508;4.980;2022-12-26T01:45:19;6.20;;;4.47;;
10383;SDS011;5238;43.508;4.980;2022-12-26T01:51:22;5.40;;;3.50;;
10383;SDS011;5238;43.508;4.980;2022-12-26T01:54:17;6.30;;;3.97;;
10383;SDS011;5238;43.508;4.980;2022-12-26T01:56:49;6.47;;;3.90;;
10383;SDS011;5238;43.508;4.980;2022-12-26T01:59:23;6.70;;;4.22;;
10383;SDS011;5238;43.508;4.980;2022-12-26T02:01:54;5.88;;;3.75;;
10383;SDS011;5238;43.508;4.980;2022-12-26T02:04:56;5.20;;;3.75;;
10383;SDS011;5238;43.508;4.980;2022-12-26T02:07:45;6.50;;;3.97;;
10383;SDS011;5238;43.508;4.980;2022-12-26T02:10:17;7.82;;;4.32;;
10383;SDS011;5238;43.508;4.980;2022-12-26T02:19:33;3.97;;;3.60;;
10383;SDS011;5238;43.508;4.980;2022-12-26T02:32:19;5.85;;;3.83;;
10383;SDS011;5238;43.508;4.980;2022-12-26T02:35:38;5.18;;;3.97;;
10383;SDS011;5238;43.508;4.980;2022-12-26T02:38:48;5.30;;;3.88;;
10383;SDS011;5238;43.508;4.980;2022-12-26T02:41:58;6.53;;;4.25;;
10383;SDS011;5238;43.508;4.980;2022-12-26T02:44:57;6.50;;;4.15;;
10383;SDS011;5238;43.508;4.980;2022-12-26T02:48:18;5.03;;;3.50;;
10383;SDS011;5238;43.508;4.980;2022-12-26T02:51:31;4.25;;;3.40;;
10383;SDS011;5238;43.508;4.980;2022-12-26T02:54:47;4.65;;;3.67;;
10383;SDS011;5238;43.508;4.980;2022-12-26T02:58:06;6.03;;;4.45;;
10383;SDS011;5238;43.508;4.980;2022-12-26T03:01:33;7.10;;;3.88;;
10383;SDS011;5238;43.508;4.980;2022-12-26T03:04:26;6.88;;;3.95;;
10383;SDS011;5238;43.508;4.980;2022-12-26T03:07:32;6.80;;;3.65;;
10383;SDS011;5238;43.508;4.980;2022-12-26T03:10:35;9.30;;;4.10;;
10383;SDS011;5238;43.508;4.980;2022-12-26T03:13:21;5.72;;;3.67;;
10383;SDS011;5238;43.508;4.980;2022-12-26T03:19:23;7.38;;;4.10;;
10383;SDS011;5238;43.508;4.980;2022-12-26T03:22:55;6.13;;;4.05;;
10383;SDS011;5238;43.508;4.980;2022-12-26T03:25:52;5.13;;;3.22;;
10383;SDS011;5238;43.508;4.980;2022-12-26T03:28:58;6.45;;;3.45;;
10383;SDS011;5238;43.508;4.980;2022-12-26T03:31:40;6.18;;;4.03;;
10383;SDS011;5238;43.508;4.980;2022-12-26T03:34:21;6.78;;;3.70;;
10383;SDS011;5238;43.508;4.980;2022-12-26T03:41:02;5.45;;;3.80;;
10383;SDS011;5238;43.508;4.980;2022-12-26T03:44:26;7.53;;;3.70;;
10383;SDS011;5238;43.508;4.980;2022-12-26T03:47:57;6.05;;;3.45;;
10383;SDS011;5238;43.508;4.980;2022-12-26T03:54:55;4.45;;;3.83;;
10383;SDS011;5238;43.508;4.980;2022-12-26T03:58:18;5.53;;;3.22;;
10383;SDS011;5238;43.508;4.980;2022-12-26T04:04:55;5.35;;;3.15;;
10383;SDS011;5238;43.508;4.980;2022-12-26T04:07:42;6.40;;;3.63;;
10383;SDS011;5238;43.508;4.980;2022-12-26T04:11:10;6.63;;;3.83;;
10383;SDS011;5238;43.508;4.980;2022-12-26T04:17:20;6.82;;;3.22;;
10383;SDS011;5238;43.508;4.980;2022-12-26T04:20:21;4.28;;;3.42;;
10383;SDS011;5238;43.508;4.980;2022-12-26T04:23:57;5.78;;;3.60;;
10383;SDS011;5238;43.508;4.980;2022-12-26T04:30:16;5.50;;;3.33;;
10383;SDS011;5238;43.508;4.980;2022-12-26T04:39:37;4.00;;;3.33;;
10383;SDS011;5238;43.508;4.980;2022-12-26T04:42:43;5.00;;;3.67;;
10383;SDS011;5238;43.508;4.980;2022-12-26T04:45:46;6.22;;;3.60;;
10383;SDS011;5238;43.508;4.980;2022-12-26T04:48:13;5.80;;;3.58;;
10383;SDS011;5238;43.508;4.980;2022-12-26T04:51:12;6.13;;;3.90;;
10383;SDS011;5238;43.508;4.980;2022-12-26T04:53:47;4.18;;;3.50;;
10383;SDS011;5238;43.508;4.980;2022-12-26T04:56:29;5.80;;;3.63;;
10383;SDS011;5238;43.508;4.980;2022-12-26T04:59:09;6.72;;;3.70;;
10383;SDS011;5238;43.508;4.980;2022-12-26T05:01:51;6.35;;;3.45;;
10383;SDS011;5238;43.508;4.980;2022-12-26T05:07:38;4.18;;;3.28;;
10383;SDS011;5238;43.508;4.980;2022-12-26T05:10:26;5.88;;;3.17;;
10383;SDS011;5238;43.508;4.980;2022-12-26T05:13:08;5.38;;;2.72;;
10383;SDS011;5238;43.508;4.980;2022-12-26T05:15:36;6.43;;;3.30;;
10383;SDS011;5238;43.508;4.980;2022-12-26T05:18:17;4.15;;;3.40;;
10383;SDS011;5238;43.508;4.980;2022-12-26T05:21:02;5.10;;;3.30;;
10383;SDS011;5238;43.508;4.980;2022-12-26T05:23:47;4.47;;;3.30;;
10383;SDS011;5238;43.508;4.980;2022-12-26T05:26:33;4.43;;;3.13;;
10383;SDS011;5238;43.508;4.980;2022-12-26T05:29:32;5.20;;;3.35;;
10383;SDS011;5238;43.508;4.980;2022-12-26T05:32:30;4.35;;;3.10;;
10383;SDS011;5238;43.508;4.980;2022-12-26T05:35:16;6.53;;;3.40;;
10383;SDS011;5238;43.508;4.980;2022-12-26T05:37:45;5.53;;;3.53;;
10383;SDS011;5238;43.508;4.980;2022-12-26T05:40:19;5.00;;;2.90;;
10383;SDS011;5238;43.508;4.980;2022-12-26T05:42:48;5.97;;;3.20;;
10383;SDS011;5238;43.508;4.980;2022-12-26T05:45:19;5.18;;;3.35;;
10383;SDS011;5238;43.508;4.980;2022-12-26T05:48:27;4.85;;;2.75;;
10383;SDS011;5238;43.508;4.980;2022-12-26T05:51:18;3.72;;;3.00;;
10383;SDS011;5238;43.508;4.980;2022-12-26T05:53:53;5.53;;;2.97;;
10383;SDS011;5238;43.508;4.980;2022-12-26T05:56:52;5.40;;;3.30;;
10383;SDS011;5238;43.508;4.980;2022-12-26T06:02:59;6.15;;;3.40;;
10383;SDS011;5238;43.508;4.980;2022-12-26T06:08:22;4.38;;;3.75;;
10383;SDS011;5238;43.508;4.980;2022-12-26T06:13:56;4.78;;;3.22;;
10383;SDS011;5238;43.508;4.980;2022-12-26T06:20:18;4.30;;;3.10;;
10383;SDS011;5238;43.508;4.980;2022-12-26T06:22:59;5.80;;;3.55;;
10383;SDS011;5238;43.508;4.980;2022-12-26T06:25:54;5.10;;;3.58;;
10383;SDS011;5238;43.508;4.980;2022-12-26T06:28:39;7.07;;;2.83;;
10383;SDS011;5238;43.508;4.980;2022-12-26T06:34:36;6.38;;;3.20;;
10383;SDS011;5238;43.508;4.980;2022-12-26T06:37:24;4.80;;;3.70;;
10383;SDS011;5238;43.508;4.980;2022-12-26T06:39:56;4.80;;;2.80;;
10383;SDS011;5238;43.508;4.980;2022-12-26T06:42:47;5.82;;;3.40;;
10383;SDS011;5238;43.508;4.980;2022-12-26T06:45:19;5.32;;;3.17;;
10383;SDS011;5238;43.508;4.980;2022-12-26T06:47:47;5.70;;;3.88;;
10383;SDS011;5238;43.508;4.980;2022-12-26T06:50:16;6.22;;;3.40;;
10383;SDS011;5238;43.508;4.980;2022-12-26T06:52:52;6.40;;;3.17;;
10383;SDS011;5238;43.508;4.980;2022-12-26T06:55:27;4.35;;;3.05;;
10383;SDS011;5238;43.508;4.980;2022-12-26T06:58:23;6.75;;;3.83;;
10383;SDS011;5238;43.508;4.980;2022-12-26T07:01:49;3.33;;;2.42;;
10383;SDS011;5238;43.508;4.980;2022-12-26T07:04:19;6.05;;;3.58;;
10383;SDS011;5238;43.508;4.980;2022-12-26T07:06:49;5.22;;;3.42;;
10383;SDS011;5238;43.508;4.980;2022-12-26T07:09:24;5.93;;;3.70;;
10383;SDS011;5238;43.508;4.980;2022-12-26T07:12:28;6.25;;;3.60;;
10383;SDS011;5238;43.508;4.980;2022-12-26T07:15:20;6.45;;;3.55;;
10383;SDS011;5238;43.508;4.980;2022-12-26T07:18:02;6.57;;;3.38;;
10383;SDS011;5238;43.508;4.980;2022-12-26T07:20:32;5.80;;;3.70;;
10383;SDS011;5238;43.508;4.980;2022-12-26T07:23:04;5.20;;;3.30;;
10383;SDS011;5238;43.508;4.980;2022-12-26T07:25:41;5.57;;;3.78;;
10383;SDS011;5238;43.508;4.980;2022-12-26T07:28:09;6.28;;;3.75;;
10383;SDS011;5238;43.508;4.980;2022-12-26T07:30:43;5.05;;;3.30;;
10383;SDS011;5238;43.508;4.980;2022-12-26T07:33:41;5.88;;;3.60;;
10383;SDS011;5238;43.508;4.980;2022-12-26T07:36:13;5.60;;;3.20;;
10383;SDS011;5238;43.508;4.980;2022-12-26T07:38:45;6.50;;;3.53;;
10383;SDS011;5238;43.508;4.980;2022-12-26T07:44:50;4.47;;;3.80;;
10383;SDS011;5238;43.508;4.980;2022-12-26T07:47:25;4.95;;;3.65;;
10383;SDS011;5238;43.508;4.980;2022-12-26T07:49:55;5.63;;;3.70;;
10383;SDS011;5238;43.508;4.980;2022-12-26T07:52:39;6.35;;;4.03;;
10383;SDS011;5238;43.508;4.980;2022-12-26T07:55:21;7.28;;;3.40;;
10383;SDS011;5238;43.508;4.980;2022-12-26T08:00:48;5.63;;;3.33;;
10383;SDS011;5238;43.508;4.980;2022-12-26T08:03:30;6.03;;;3.80;;
10383;SDS011;5238;43.508;4.980;2022-12-26T08:05:58;6.40;;;4.15;;
10383;SDS011;5238;43.508;4.980;2022-12-26T08:08:30;4.80;;;3.58;;
10383;SDS011;5238;43.508;4.980;2022-12-26T08:11:03;9.95;;;4.75;;
10383;SDS011;5238;43.508;4.980;2022-12-26T08:13:33;5.60;;;4.55;;
10383;SDS011;5238;43.508;4.980;2022-12-26T08:16:11;5.25;;;3.95;;
10383;SDS011;5238;43.508;4.980;2022-12-26T08:19:00;5.82;;;3.72;;
10383;SDS011;5238;43.508;4.980;2022-12-26T08:21:32;7.53;;;3.72;;
10383;SDS011;5238;43.508;4.980;2022-12-26T08:24:24;6.78;;;3.22;;
10383;SDS011;5238;43.508;4.980;2022-12-26T08:26:57;6.38;;;3.50;;
10383;SDS011;5238;43.508;4.980;2022-12-26T08:29:29;6.72;;;4.68;;
10383;SDS011;5238;43.508;4.980;2022-12-26T08:32:11;7.05;;;3.65;;
10383;SDS011;5238;43.508;4.980;2022-12-26T08:34:42;6.88;;;3.50;;
10383;SDS011;5238;43.508;4.980;2022-12-26T08:37:24;3.90;;;3.25;;
10383;SDS011;5238;43.508;4.980;2022-12-26T08:39:53;4.63;;;3.72;;
10383;SDS011;5238;43.508;4.980;2022-12-26T08:42:25;6.15;;;4.13;;
10383;SDS011;5238;43.508;4.980;2022-12-26T08:44:53;4.70;;;4.25;;
10383;SDS011;5238;43.508;4.980;2022-12-26T08:47:30;5.70;;;3.92;;
10383;SDS011;5238;43.508;4.980;2022-12-26T08:49:59;5.28;;;4.57;;
10383;SDS011;5238;43.508;4.980;2022-12-26T08:53:09;5.85;;;3.75;;
10383;SDS011;5238;43.508;4.980;2022-12-26T08:55:32;6.18;;;4.70;;
10383;SDS011;5238;43.508;4.980;2022-12-26T08:58:25;4.05;;;3.53;;
10383;SDS011;5238;43.508;4.980;2022-12-26T09:00:53;4.85;;;4.18;;
10383;SDS011;5238;43.508;4.980;2022-12-26T09:03:22;6.38;;;3.97;;
10383;SDS011;5238;43.508;4.980;2022-12-26T09:05:50;5.65;;;4.50;;
10383;SDS011;5238;43.508;4.980;2022-12-26T09:08:25;6.70;;;4.72;;
10383;SDS011;5238;43.508;4.980;2022-12-26T09:11:01;5.97;;;4.30;;
10383;SDS011;5238;43.508;4.980;2022-12-26T09:16:49;5.18;;;4.68;;
10383;SDS011;5238;43.508;4.980;2022-12-26T09:19:22;6.82;;;5.05;;
10383;SDS011;5238;43.508;4.980;2022-12-26T09:22:00;9.18;;;5.65;;
10383;SDS011;5238;43.508;4.980;2022-12-26T09:24:54;10.10;;;5.57;;
10383;SDS011;5238;43.508;4.980;2022-12-26T09:30:13;5.20;;;4.28;;
10383;SDS011;5238;43.508;4.980;2022-12-26T09:32:41;6.85;;;5.82;;
10383;SDS011;5238;43.508;4.980;2022-12-26T09:38:07;10.63;;;4.90;;
10383;SDS011;5238;43.508;4.980;2022-12-26T09:40:39;7.75;;;5.80;;
10383;SDS011;5238;43.508;4.980;2022-12-26T09:43:23;6.78;;;5.22;;
10383;SDS011;5238;43.508;4.980;2022-12-26T09:46:11;6.43;;;5.47;;
10383;SDS011;5238;43.508;4.980;2022-12-26T09:48:44;8.23;;;5.55;;
10383;SDS011;5238;43.508;4.980;2022-12-26T09:51:22;6.25;;;5.63;;
10383;SDS011;5238;43.508;4.980;2022-12-26T09:54:10;8.93;;;5.10;;
10383;SDS011;5238;43.508;4.980;2022-12-26T09:57:05;8.95;;;5.35;;
10383;SDS011;5238;43.508;4.980;2022-12-26T09:59:51;5.13;;;3.88;;
10383;SDS011;5238;43.508;4.980;2022-12-26T10:02:37;8.93;;;4.20;;
10383;SDS011;5238;43.508;4.980;2022-12-26T10:08:26;6.97;;;4.72;;
10383;SDS011;5238;43.508;4.980;2022-12-26T10:11:41;5.20;;;4.50;;
10383;SDS011;5238;43.508;4.980;2022-12-26T10:14:20;6.80;;;4.15;;
10383;SDS011;5238;43.508;4.980;2022-12-26T10:17:17;5.78;;;4.72;;
10383;SDS011;5238;43.508;4.980;2022-12-26T10:21:04;6.43;;;4.65;;
10383;SDS011;5238;43.508;4.980;2022-12-26T10:27:11;7.43;;;4.95;;
10383;SDS011;5238;43.508;4.980;2022-12-26T10:29:43;8.10;;;4.80;;
10383;SDS011;5238;43.508;4.980;2022-12-26T10:32:38;5.78;;;4.50;;
10383;SDS011;5238;43.508;4.980;2022-12-26T10:35:20;7.72;;;4.47;;
10383;SDS011;5238;43.508;4.980;2022-12-26T10:37:51;6.97;;;4.63;;
10383;SDS011;5238;43.508;4.980;2022-12-26T10:40:32;9.57;;;5.03;;
10383;SDS011;5238;43.508;4.980;2022-12-26T10:43:14;8.70;;;4.95;;
10383;SDS011;5238;43.508;4.980;2022-12-26T10:49:43;7.15;;;5.03;;
10383;SDS011;5238;43.508;4.980;2022-12-26T10:52:26;7.75;;;4.90;;
10383;SDS011;5238;43.508;4.980;2022-12-26T10:55:00;7.82;;;5.38;;
10383;SDS011;5238;43.508;4.980;2022-12-26T10:57:34;9.95;;;6.00;;
10383;SDS011;5238;43.508;4.980;2022-12-26T11:00:17;8.98;;;5.05;;
10383;SDS011;5238;43.508;4.980;2022-12-26T11:03:14;7.45;;;5.00;;
10383;SDS011;5238;43.508;4.980;2022-12-26T11:05:52;7.40;;;5.10;;
10383;SDS011;5238;43.508;4.980;2022-12-26T11:08:46;5.88;;;5.18;;
10383;SDS011;5238;43.508;4.980;2022-12-26T11:11:32;6.80;;;4.47;;
10383;SDS011;5238;43.508;4.980;2022-12-26T11:14:29;8.20;;;4.63;;
10383;SDS011;5238;43.508;4.980;2022-12-26T11:17:10;8.15;;;5.18;;
10383;SDS011;5238;43.508;4.980;2022-12-26T11:20:10;7.85;;;5.25;;
10383;SDS011;5238;43.508;4.980;2022-12-26T11:22:55;6.47;;;5.15;;
10383;SDS011;5238;43.508;4.980;2022-12-26T11:26:42;9.98;;;5.28;;
10383;SDS011;5238;43.508;4.980;2022-12-26T11:29:46;9.40;;;5.60;;
10383;SDS011;5238;43.508;4.980;2022-12-26T11:32:50;8.52;;;5.25;;
10383;SDS011;5238;43.508;4.980;2022-12-26T11:35:48;9.20;;;5.72;;
10383;SDS011;5238;43.508;4.980;2022-12-26T11:45:40;8.10;;;5.35;;
10383;SDS011;5238;43.508;4.980;2022-12-26T11:52:01;5.78;;;4.50;;
10383;SDS011;5238;43.508;4.980;2022-12-26T11:55:44;7.35;;;4.90;;
10383;SDS011;5238;43.508;4.980;2022-12-26T11:58:29;8.43;;;4.25;;
10383;SDS011;5238;43.508;4.980;2022-12-26T12:15:42;7.38;;;4.03;;
10383;SDS011;5238;43.508;4.980;2022-12-26T12:26:09;6.55;;;3.75;;
10383;SDS011;5238;43.508;4.980;2022-12-26T12:29:18;5.35;;;3.60;;
10383;SDS011;5238;43.508;4.980;2022-12-26T12:32:33;5.90;;;4.13;;
10383;SDS011;5238;43.508;4.980;2022-12-26T12:36:00;6.05;;;3.83;;
10383;SDS011;5238;43.508;4.980;2022-12-26T12:38:59;8.30;;;3.78;;
10383;SDS011;5238;43.508;4.980;2022-12-26T12:52:04;4.38;;;3.08;;
10383;SDS011;5238;43.508;4.980;2022-12-26T12:56:10;6.45;;;3.70;;
10383;SDS011;5238;43.508;4.980;2022-12-26T12:59:15;7.03;;;3.15;;
10383;SDS011;5238;43.508;4.980;2022-12-26T13:02:27;5.55;;;3.30;;
10383;SDS011;5238;43.508;4.980;2022-12-26T13:06:15;4.60;;;3.22;;
10383;SDS011;5238;43.508;4.980;2022-12-26T13:16:43;5.38;;;3.40;;
10383;SDS011;5238;43.508;4.980;2022-12-26T13:19:48;6.10;;;3.50;;
10383;SDS011;5238;43.508;4.980;2022-12-26T13:26:08;6.05;;;3.30;;
10383;SDS011;5238;43.508;4.980;2022-12-26T13:31:59;7.93;;;3.10;;
10383;SDS011;5238;43.508;4.980;2022-12-26T13:34:30;5.35;;;3.13;;
10383;SDS011;5238;43.508;4.980;2022-12-26T13:37:00;7.53;;;3.65;;
10383;SDS011;5238;43.508;4.980;2022-12-26T13:39:36;7.20;;;3.38;;
10383;SDS011;5238;43.508;4.980;2022-12-26T13:42:29;8.98;;;3.60;;
10383;SDS011;5238;43.508;4.980;2022-12-26T14:20:01;6.93;;;4.63;;
10383;SDS011;5238;43.508;4.980;2022-12-26T14:26:42;113.88;;;51.35;;
10383;SDS011;5238;43.508;4.980;2022-12-26T14:29:22;40.00;;;22.10;;
10383;SDS011;5238;43.508;4.980;2022-12-26T14:36:15;19.13;;;9.43;;
10383;SDS011;5238;43.508;4.980;2022-12-26T14:38:53;18.92;;;9.52;;
10383;SDS011;5238;43.508;4.980;2022-12-26T14:41:28;14.27;;;8.20;;
10383;SDS011;5238;43.508;4.980;2022-12-26T14:44:55;22.00;;;10.82;;
10383;SDS011;5238;43.508;4.980;2022-12-26T14:53:21;8.48;;;4.60;;
10383;SDS011;5238;43.508;4.980;2022-12-26T14:55:59;7.32;;;4.40;;
10383;SDS011;5238;43.508;4.980;2022-12-26T14:58:39;10.57;;;4.85;;
10383;SDS011;5238;43.508;4.980;2022-12-26T15:08:05;10.35;;;4.43;;
10383;SDS011;5238;43.508;4.980;2022-12-26T15:11:01;8.50;;;5.00;;
10383;SDS011;5238;43.508;4.980;2022-12-26T15:14:15;12.63;;;7.05;;
10383;SDS011;5238;43.508;4.980;2022-12-26T15:57:59;9.80;;;6.35;;
10383;SDS011;5238;43.508;4.980;2022-12-26T16:00:38;11.45;;;8.00;;
10383;SDS011;5238;43.508;4.980;2022-12-26T16:03:23;16.23;;;12.27;;
10383;SDS011;5238;43.508;4.980;2022-12-26T16:30:16;25.92;;;15.43;;
10383;SDS011;5238;43.508;4.980;2022-12-26T16:33:09;30.20;;;17.38;;
10383;SDS011;5238;43.508;4.980;2022-12-26T16:36:20;29.65;;;24.45;;
10383;SDS011;5238;43.508;4.980;2022-12-26T16:39:38;26.60;;;20.02;;
10383;SDS011;5238;43.508;4.980;2022-12-26T16:42:53;24.13;;;16.58;;
10383;SDS011;5238;43.508;4.980;2022-12-26T16:52:35;44.05;;;31.20;;
10383;SDS011;5238;43.508;4.980;2022-12-26T17:01:03;69.40;;;51.90;;
10383;SDS011;5238;43.508;4.980;2022-12-26T17:03:37;49.63;;;31.35;;
10383;SDS011;5238;43.508;4.980;2022-12-26T17:12:47;31.15;;;20.50;;
10383;SDS011;5238;43.508;4.980;2022-12-26T17:15:45;31.98;;;20.58;;
10383;SDS011;5238;43.508;4.980;2022-12-26T17:18:50;26.38;;;18.63;;
10383;SDS011;5238;43.508;4.980;2022-12-26T17:25:22;23.27;;;13.35;;
10383;SDS011;5238;43.508;4.980;2022-12-26T17:28:30;18.77;;;12.73;;
10383;SDS011;5238;43.508;4.980;2022-12-26T17:31:09;17.42;;;13.02;;
10383;SDS011;5238;43.508;4.980;2022-12-26T17:34:27;18.25;;;13.43;;
10383;SDS011;5238;43.508;4.980;2022-12-26T17:37:17;19.65;;;14.50;;
10383;SDS011;5238;43.508;4.980;2022-12-26T17:40:47;22.27;;;14.63;;
10383;SDS011;5238;43.508;4.980;2022-12-26T17:50:57;19.38;;;14.25;;
10383;SDS011;5238;43.508;4.980;2022-12-26T17:53:37;18.98;;;12.10;;
10383;SDS011;5238;43.508;4.980;2022-12-26T17:56:50;21.02;;;13.32;;
10383;SDS011;5238;43.508;4.980;2022-12-26T18:03:05;16.67;;;11.77;;
10383;SDS011;5238;43.508;4.980;2022-12-26T18:14:02;17.80;;;11.85;;
10383;SDS011;5238;43.508;4.980;2022-12-26T18:17:22;15.70;;;10.52;;
10383;SDS011;5238;43.508;4.980;2022-12-26T18:19:54;16.42;;;10.95;;
10383;SDS011;5238;43.508;4.980;2022-12-26T18:22:36;16.45;;;11.30;;
10383;SDS011;5238;43.508;4.980;2022-12-26T18:25:23;19.75;;;11.73;;
10383;SDS011;5238;43.508;4.980;2022-12-26T18:28:14;14.10;;;10.75;;
10383;SDS011;5238;43.508;4.980;2022-12-26T18:30:50;14.60;;;11.10;;
10383;SDS011;5238;43.508;4.980;2022-12-26T18:33:43;16.23;;;12.05;;
10383;SDS011;5238;43.508;4.980;2022-12-26T18:36:28;16.67;;;11.80;;
10383;SDS011;5238;43.508;4.980;2022-12-26T18:39:55;20.45;;;14.15;;
10383;SDS011;5238;43.508;4.980;2022-12-26T18:43:26;19.83;;;15.57;;
10383;SDS011;5238;43.508;4.980;2022-12-26T18:46:25;24.67;;;16.60;;
10383;SDS011;5238;43.508;4.980;2022-12-26T18:49:22;21.42;;;16.13;;
10383;SDS011;5238;43.508;4.980;2022-12-26T18:52:34;22.17;;;15.68;;
10383;SDS011;5238;43.508;4.980;2022-12-26T18:56:38;22.65;;;14.30;;
10383;SDS011;5238;43.508;4.980;2022-12-26T19:00:39;18.25;;;12.90;;
10383;SDS011;5238;43.508;4.980;2022-12-26T19:03:24;21.77;;;15.73;;
10383;SDS011;5238;43.508;4.980;2022-12-26T19:06:10;24.52;;;17.13;;
10383;SDS011;5238;43.508;4.980;2022-12-26T19:17:02;29.63;;;21.45;;
10383;SDS011;5238;43.508;4.980;2022-12-26T19:20:28;29.73;;;21.67;;
10383;SDS011;5238;43.508;4.980;2022-12-26T19:23:34;28.48;;;21.40;;
10383;SDS011;5238;43.508;4.980;2022-12-26T19:26:23;27.52;;;20.23;;
10383;SDS011;5238;43.508;4.980;2022-12-26T19:33:07;31.80;;;23.55;;
10383;SDS011;5238;43.508;4.980;2022-12-26T19:35:43;29.67;;;21.05;;
10383;SDS011;5238;43.508;4.980;2022-12-26T19:45:13;27.95;;;18.00;;
10383;SDS011;5238;43.508;4.980;2022-12-26T19:47:55;26.38;;;17.75;;
10383;SDS011;5238;43.508;4.980;2022-12-26T19:50:33;25.33;;;17.23;;
10383;SDS011;5238;43.508;4.980;2022-12-26T19:53:06;24.88;;;17.58;;
10383;SDS011;5238;43.508;4.980;2022-12-26T19:55:52;26.77;;;18.30;;
10383;SDS011;5238;43.508;4.980;2022-12-26T19:58:31;25.23;;;18.85;;
10383;SDS011;5238;43.508;4.980;2022-12-26T20:01:07;27.95;;;18.10;;
10383;SDS011;5238;43.508;4.980;2022-12-26T20:03:37;28.20;;;18.08;;
10383;SDS011;5238;43.508;4.980;2022-12-26T20:09:25;26.88;;;18.58;;
10383;SDS011;5238;43.508;4.980;2022-12-26T20:12:03;25.77;;;18.08;;
10383;SDS011;5238;43.508;4.980;2022-12-26T20:14:51;27.88;;;19.15;;
10383;SDS011;5238;43.508;4.980;2022-12-26T20:21:11;21.95;;;16.10;;
10383;SDS011;5238;43.508;4.980;2022-12-26T20:27:06;26.25;;;16.85;;
10383;SDS011;5238;43.508;4.980;2022-12-26T20:35:24;24.50;;;20.35;;
10383;SDS011;5238;43.508;4.980;2022-12-26T20:38:04;25.88;;;19.70;;
10383;SDS011;5238;43.508;4.980;2022-12-26T20:40:56;29.25;;;20.92;;
10383;SDS011;5238;43.508;4.980;2022-12-26T20:43:36;25.85;;;19.65;;
10383;SDS011;5238;43.508;4.980;2022-12-26T20:46:16;24.33;;;20.23;;
10383;SDS011;5238;43.508;4.980;2022-12-26T20:49:01;27.08;;;19.88;;
10383;SDS011;5238;43.508;4.980;2022-12-26T20:52:05;25.75;;;19.13;;
10383;SDS011;5238;43.508;4.980;2022-12-26T20:54:33;27.13;;;19.73;;
10383;SDS011;5238;43.508;4.980;2022-12-26T21:00:19;25.55;;;18.60;;
10383;SDS011;5238;43.508;4.980;2022-12-26T21:03:04;25.83;;;19.55;;
10383;SDS011;5238;43.508;4.980;2022-12-26T21:05:50;29.55;;;20.63;;
10383;SDS011;5238;43.508;4.980;2022-12-26T21:08:38;29.23;;;20.92;;
10383;SDS011;5238;43.508;4.980;2022-12-26T21:11:21;29.70;;;22.38;;
10383;SDS011;5238;43.508;4.980;2022-12-26T21:14:07;32.22;;;25.10;;
10383;SDS011;5238;43.508;4.980;2022-12-26T21:16:52;33.38;;;23.65;;
10383;SDS011;5238;43.508;4.980;2022-12-26T21:19:22;29.73;;;24.17;;
10383;SDS011;5238;43.508;4.980;2022-12-26T21:22:03;30.52;;;23.75;;
10383;SDS011;5238;43.508;4.980;2022-12-26T21:24:49;31.92;;;23.42;;
10383;SDS011;5238;43.508;4.980;2022-12-26T21:27:33;30.88;;;22.23;;
10383;SDS011;5238;43.508;4.980;2022-12-26T21:30:27;29.80;;;22.05;;
10383;SDS011;5238;43.508;4.980;2022-12-26T21:33:25;30.75;;;24.30;;
10383;SDS011;5238;43.508;4.980;2022-12-26T21:36:05;33.90;;;24.73;;
10383;SDS011;5238;43.508;4.980;2022-12-26T21:39:07;32.55;;;24.75;;
10383;SDS011;5238;43.508;4.980;2022-12-26T21:41:44;31.35;;;25.10;;
10383;SDS011;5238;43.508;4.980;2022-12-26T21:44:41;36.67;;;26.85;;
10383;SDS011;5238;43.508;4.980;2022-12-26T21:53:05;37.25;;;29.70;;
10383;SDS011;5238;43.508;4.980;2022-12-26T21:55:34;42.80;;;28.83;;
10383;SDS011;5238;43.508;4.980;2022-12-26T21:58:18;41.40;;;29.77;;
10383;SDS011;5238;43.508;4.980;2022-12-26T22:01:27;48.15;;;34.95;;
10383;SDS011;5238;43.508;4.980;2022-12-26T22:04:03;45.03;;;34.75;;
10383;SDS011;5238;43.508;4.980;2022-12-26T22:06:47;49.13;;;34.38;;
10383;SDS011;5238;43.508;4.980;2022-12-26T22:09:40;44.60;;;31.85;;
10383;SDS011;5238;43.508;4.980;2022-12-26T22:12:28;52.45;;;34.30;;
10383;SDS011;5238;43.508;4.980;2022-12-26T22:15:13;43.78;;;33.50;;
10383;SDS011;5238;43.508;4.980;2022-12-26T22:17:58;45.95;;;32.78;;
10383;SDS011;5238;43.508;4.980;2022-12-26T22:20:44;45.50;;;33.92;;
10383;SDS011;5238;43.508;4.980;2022-12-26T22:23:20;51.30;;;34.25;;
10383;SDS011;5238;43.508;4.980;2022-12-26T22:25:52;47.90;;;32.67;;
10383;SDS011;5238;43.508;4.980;2022-12-26T22:28:23;44.60;;;32.42;;
10383;SDS011;5238;43.508;4.980;2022-12-26T22:36:26;45.92;;;34.25;;
10383;SDS011;5238;43.508;4.980;2022-12-26T22:38:54;49.72;;;35.33;;
10383;SDS011;5238;43.508;4.980;2022-12-26T22:41:21;46.08;;;34.72;;
10383;SDS011;5238;43.508;4.980;2022-12-26T22:43:49;47.67;;;34.72;;
10383;SDS011;5238;43.508;4.980;2022-12-26T22:46:17;47.70;;;34.63;;
10383;SDS011;5238;43.508;4.980;2022-12-26T22:48:46;50.92;;;33.97;;
10383;SDS011;5238;43.508;4.980;2022-12-26T22:51:22;47.90;;;33.70;;
10383;SDS011;5238;43.508;4.980;2022-12-26T22:54:06;44.65;;;31.83;;
10383;SDS011;5238;43.508;4.980;2022-12-26T22:56:38;43.88;;;33.15;;
10383;SDS011;5238;43.508;4.980;2022-12-26T22:59:13;45.35;;;31.10;;
10383;SDS011;5238;43.508;4.980;2022-12-26T23:01:42;42.88;;;32.53;;
10383;SDS011;5238;43.508;4.980;2022-12-26T23:04:12;46.33;;;31.45;;
10383;SDS011;5238;43.508;4.980;2022-12-26T23:06:50;41.40;;;32.42;;
10383;SDS011;5238;43.508;4.980;2022-12-26T23:09:27;46.20;;;33.80;;
10383;SDS011;5238;43.508;4.980;2022-12-26T23:11:57;48.45;;;32.25;;